createdAt,value
2022-09-02T00:01:55.221Z,18.76
2022-09-02T00:04:25.350Z,18.68
2022-09-02T00:06:54.289Z,18.53
2022-09-02T00:09:23.748Z,18.47
2022-09-02T00:11:52.336Z,18.21
2022-09-02T00:14:24.941Z,18.34
2022-09-02T00:16:51.900Z,18.58
2022-09-02T00:19:21.984Z,18.62
2022-09-02T00:21:49.515Z,18.33
2022-09-02T00:24:17.350Z,18.35
2022-09-02T00:26:45.368Z,18.09
2022-09-02T00:29:14.525Z,18.47
2022-09-02T00:31:44.002Z,18.51
2022-09-02T00:34:11.961Z,18.82
2022-09-02T00:36:39.019Z,18.66
2022-09-02T00:39:08.267Z,18.24
2022-09-02T00:41:37.651Z,18.23
2022-09-02T00:44:11.680Z,18.50
2022-09-02T00:46:39.022Z,18.27
2022-09-02T00:49:11.054Z,18.55
2022-09-02T00:51:47.298Z,18.47
2022-09-02T00:54:16.446Z,18.47
2022-09-02T00:56:45.687Z,18.04
2022-09-02T00:59:24.009Z,18.06
2022-09-02T01:01:50.816Z,18.05
2022-09-02T01:04:17.907Z,18.42
2022-09-02T01:06:44.909Z,17.88
2022-09-02T01:09:16.688Z,18.01
2022-09-02T01:11:48.492Z,17.77
2022-09-02T01:14:16.716Z,17.78
2022-09-02T01:16:48.577Z,17.76
2022-09-02T01:19:25.021Z,18.11
2022-09-02T01:21:53.896Z,17.84
2022-09-02T01:24:22.861Z,17.91
2022-09-02T01:26:52.355Z,18.01
2022-09-02T01:29:21.367Z,17.62
2022-09-02T01:31:48.333Z,17.78
2022-09-02T01:34:15.361Z,17.97
2022-09-02T01:36:43.520Z,18.12
2022-09-02T01:39:11.743Z,18.21
2022-09-02T01:41:38.874Z,17.69
2022-09-02T01:44:06.908Z,17.76
2022-09-02T01:46:35.205Z,18.07
2022-09-02T01:49:02.703Z,17.93
2022-09-02T01:51:29.501Z,17.76
2022-09-02T01:53:56.182Z,17.41
2022-09-02T01:56:22.808Z,17.44
2022-09-02T01:58:51.684Z,17.36
2022-09-02T02:01:19.996Z,17.54
2022-09-02T02:03:47.307Z,17.16
2022-09-02T02:06:17.615Z,17.30
2022-09-02T02:08:45.419Z,17.21
2022-09-02T02:11:18.527Z,17.26
2022-09-02T02:13:50.033Z,17.53
2022-09-02T02:16:17.157Z,17.16
2022-09-02T02:18:43.906Z,17.03
2022-09-02T02:21:11.425Z,16.84
2022-09-02T02:23:38.083Z,16.73
2022-09-02T02:26:06.454Z,16.82
2022-09-02T02:28:33.297Z,16.81
2022-09-02T02:31:01.965Z,16.51
2022-09-02T02:33:35.910Z,16.63
2022-09-02T02:36:06.174Z,16.55
2022-09-02T02:38:37.520Z,16.48
2022-09-02T02:41:06.496Z,16.36
2022-09-02T02:43:34.814Z,16.41
2022-09-02T02:46:02.093Z,16.45
2022-09-02T02:48:29.584Z,16.48
2022-09-02T02:50:56.268Z,16.64
2022-09-02T02:53:23.318Z,16.42
2022-09-02T02:55:51.496Z,16.67
2022-09-02T02:58:18.517Z,16.08
2022-09-02T03:00:46.603Z,16.16
2022-09-02T03:03:19.341Z,16.10
2022-09-02T03:05:49.471Z,15.94
2022-09-02T03:08:21.134Z,16.21
2022-09-02T03:10:54.451Z,15.89
2022-09-02T03:13:24.163Z,16.25
2022-09-02T03:15:51.830Z,16.15
2022-09-02T03:18:20.552Z,15.95
2022-09-02T03:20:49.165Z,16.09
2022-09-02T03:23:18.012Z,15.77
2022-09-02T03:25:48.437Z,16.05
2022-09-02T03:28:23.752Z,16.11
2022-09-02T03:30:50.605Z,15.99
2022-09-02T03:33:18.040Z,15.77
2022-09-02T03:35:46.167Z,15.96
2022-09-02T03:38:13.792Z,15.91
2022-09-02T03:40:41.680Z,15.89
2022-09-02T03:43:09.165Z,15.73
2022-09-02T03:45:38.798Z,15.96
2022-09-02T03:48:05.833Z,15.84
2022-09-02T03:50:39.995Z,15.55
2022-09-02T03:53:09.477Z,15.58
2022-09-02T03:55:45.179Z,15.60
2022-09-02T03:58:13.625Z,15.47
2022-09-02T04:00:41.464Z,15.43
2022-09-02T04:03:08.202Z,15.51
2022-09-02T04:05:34.974Z,15.36
2022-09-02T04:08:02.272Z,15.84
2022-09-02T04:10:29.158Z,15.28
2022-09-02T04:12:56.541Z,15.12
2022-09-02T04:15:23.268Z,15.27
2022-09-02T04:17:51.667Z,15.20
2022-09-02T04:20:20.803Z,15.08
2022-09-02T04:22:47.485Z,15.01
2022-09-02T04:25:15.511Z,14.98
2022-09-02T04:27:43.259Z,14.97
2022-09-02T04:30:10.839Z,14.90
2022-09-02T04:32:40.927Z,14.95
2022-09-02T04:35:09.364Z,15.12
2022-09-02T04:37:37.056Z,15.30
2022-09-02T04:40:04.922Z,14.98
2022-09-02T04:42:31.820Z,14.97
2022-09-02T04:44:59.357Z,14.89
2022-09-02T04:47:27.816Z,15.07
2022-09-02T04:49:55.313Z,14.93
2022-09-02T04:52:22.595Z,14.94
2022-09-02T04:54:51.574Z,14.90
2022-09-02T04:57:18.274Z,15.02
2022-09-02T04:59:45.353Z,14.80
2022-09-02T05:02:12.750Z,14.74
2022-09-02T05:04:40.594Z,14.94
2022-09-02T05:07:14.302Z,15.12
2022-09-02T05:09:44.717Z,15.16
2022-09-02T05:12:11.851Z,15.36
2022-09-02T05:14:44.122Z,15.51
2022-09-02T05:17:11.222Z,15.69
2022-09-02T05:19:43.072Z,15.67
2022-09-02T05:22:10.493Z,15.75
2022-09-02T05:24:42.793Z,16.83
2022-09-02T05:27:16.069Z,17.21
2022-09-02T05:29:45.493Z,17.51
2022-09-02T05:32:13.948Z,17.70
2022-09-02T05:34:40.762Z,17.57
2022-09-02T05:37:07.646Z,17.85
2022-09-02T05:39:35.491Z,18.23
2022-09-02T05:42:05.164Z,18.23
2022-09-02T05:44:33.035Z,18.40
2022-09-02T05:47:02.155Z,18.32
2022-09-02T05:49:29.122Z,18.75
2022-09-02T05:52:05.392Z,18.94
2022-09-02T05:54:40.371Z,18.87
2022-09-02T05:57:13.135Z,19.34
2022-09-02T05:59:46.018Z,19.18
2022-09-02T06:02:18.369Z,19.47
2022-09-02T06:04:48.305Z,19.51
2022-09-02T06:07:17.318Z,19.89
2022-09-02T06:09:46.721Z,19.88
2022-09-02T06:12:15.102Z,20.22
2022-09-02T06:14:42.947Z,20.97
2022-09-02T06:17:10.812Z,21.19
2022-09-02T06:19:52.646Z,20.54
2022-09-02T06:22:22.020Z,21.37
2022-09-02T06:24:48.722Z,20.50
2022-09-02T06:27:20.813Z,20.73
2022-09-02T06:29:51.003Z,21.60
2022-09-02T06:32:20.540Z,21.51
2022-09-02T06:34:49.112Z,21.35
2022-09-02T06:37:16.006Z,22.15
2022-09-02T06:39:43.931Z,22.71
2022-09-02T06:42:16.280Z,22.93
2022-09-02T06:45:00.218Z,21.94
2022-09-02T06:47:27.816Z,22.66
2022-09-02T06:49:55.046Z,21.96
2022-09-02T06:52:21.829Z,22.15
2022-09-02T06:54:50.757Z,21.67
2022-09-02T06:57:18.861Z,21.59
2022-09-02T06:59:46.659Z,23.09
2022-09-02T07:02:14.429Z,21.58
2022-09-02T07:05:00.371Z,22.49
2022-09-02T07:07:27.086Z,22.45
2022-09-02T07:10:01.655Z,22.91
2022-09-02T07:12:28.513Z,23.12
2022-09-02T07:15:03.686Z,23.06
2022-09-02T07:17:38.257Z,23.06
2022-09-02T07:20:09.721Z,22.66
2022-09-02T07:22:56.860Z,22.99
2022-09-02T07:25:25.841Z,21.98
2022-09-02T07:27:53.350Z,21.48
2022-09-02T07:30:21.021Z,21.91
2022-09-02T07:32:52.074Z,22.94
2022-09-02T07:35:21.995Z,23.98
2022-09-02T07:37:50.814Z,23.24
2022-09-02T07:40:19.746Z,23.29
2022-09-02T07:42:47.263Z,24.32
2022-09-02T07:45:14.902Z,23.66
2022-09-02T07:47:43.430Z,23.06
2022-09-02T07:50:19.645Z,24.32
2022-09-02T07:52:53.342Z,24.19
2022-09-02T07:55:21.886Z,24.83
2022-09-02T07:57:50.399Z,24.35
2022-09-02T08:00:21.054Z,24.81
2022-09-02T08:02:50.312Z,24.82
2022-09-02T08:05:23.377Z,23.40
2022-09-02T08:07:50.404Z,24.22
2022-09-02T08:10:17.341Z,24.55
2022-09-02T08:12:45.148Z,23.40
2022-09-02T08:15:17.199Z,23.05
2022-09-02T08:17:44.314Z,23.66
2022-09-02T08:20:13.189Z,22.38
2022-09-02T08:22:40.859Z,23.46
2022-09-02T08:25:08.955Z,23.87
2022-09-02T08:27:36.754Z,24.17
2022-09-02T08:30:11.411Z,25.40
2022-09-02T08:32:39.788Z,25.56
2022-09-02T08:35:08.895Z,24.34
2022-09-02T08:37:37.208Z,23.78
2022-09-02T08:40:07.720Z,24.11
2022-09-02T08:42:44.652Z,24.19
2022-09-02T08:45:14.210Z,25.73
2022-09-02T08:47:46.043Z,23.96
2022-09-02T08:50:16.248Z,24.42
2022-09-02T08:52:56.077Z,24.64
2022-09-02T08:55:32.555Z,23.66
2022-09-02T08:58:01.947Z,25.59
2022-09-02T09:00:40.202Z,24.99
2022-09-02T09:03:23.845Z,25.02
2022-09-02T09:06:13.842Z,26.24
2022-09-02T09:09:03.931Z,24.76
2022-09-02T09:12:15.018Z,26.15
2022-09-02T09:14:58.413Z,25.40
2022-09-02T09:17:52.739Z,25.27
2022-09-02T09:20:26.162Z,25.70
2022-09-02T09:22:57.120Z,25.65
2022-09-02T09:25:30.876Z,26.18
2022-09-02T09:28:01.578Z,26.13
2022-09-02T09:30:29.461Z,27.00
2022-09-02T09:32:59.931Z,27.73
2022-09-02T09:35:28.144Z,27.30
2022-09-02T09:37:55.897Z,27.36
2022-09-02T09:40:24.293Z,27.73
2022-09-02T09:43:02.932Z,28.05
2022-09-02T09:45:37.988Z,27.18
2022-09-02T09:48:16.924Z,26.01
2022-09-02T09:50:45.471Z,26.72
2022-09-02T09:53:20.096Z,26.42
2022-09-02T09:55:57.558Z,26.60
2022-09-02T09:58:42.371Z,26.82
2022-09-02T10:01:12.138Z,27.18
2022-09-02T10:03:43.798Z,27.02
2022-09-02T10:06:25.907Z,26.55
2022-09-02T10:08:58.749Z,27.87
2022-09-02T10:11:31.101Z,26.75
2022-09-02T10:14:11.583Z,26.90
2022-09-02T10:16:44.755Z,26.49
2022-09-02T10:19:18.093Z,26.39
2022-09-02T10:22:04.190Z,27.05
2022-09-02T10:24:36.550Z,26.67
2022-09-02T10:27:09.108Z,25.46
2022-09-02T10:29:54.455Z,26.13
2022-09-02T10:32:43.632Z,25.72
2022-09-02T10:35:29.480Z,25.89
2022-09-02T10:38:11.394Z,26.74
2022-09-02T10:40:45.627Z,28.06
2022-09-02T10:43:28.124Z,28.18
2022-09-02T10:45:59.618Z,27.24
2022-09-02T10:48:46.141Z,26.24
2022-09-02T10:51:23.176Z,27.44
2022-09-02T10:54:10.923Z,27.16
2022-09-02T10:56:45.554Z,27.21
2022-09-02T10:59:21.452Z,27.92
2022-09-02T11:02:15.918Z,28.41
2022-09-02T11:04:59.175Z,28.21
2022-09-02T11:07:36.629Z,26.28
2022-09-02T11:10:11.152Z,26.11
2022-09-02T11:12:58.020Z,25.77
2022-09-02T11:15:44.211Z,26.83
2022-09-02T11:18:17.989Z,26.86
2022-09-02T11:20:51.901Z,26.57
2022-09-02T11:23:41.576Z,26.45
2022-09-02T11:26:22.268Z,27.18
2022-09-02T11:29:17.267Z,26.62
2022-09-02T11:32:02.298Z,26.58
2022-09-02T11:34:44.736Z,26.88
2022-09-02T11:37:26.762Z,26.52
2022-09-02T11:40:23.398Z,28.15
2022-09-02T11:43:02.478Z,27.24
2022-09-02T11:45:58.228Z,27.12
2022-09-02T11:48:50.792Z,27.78
2022-09-02T11:51:46.617Z,27.71
2022-09-02T11:54:18.624Z,27.82
2022-09-02T11:56:48.939Z,25.85
2022-09-02T11:59:50.588Z,28.00
2022-09-02T12:02:50.252Z,27.70
2022-09-02T12:05:32.519Z,26.95
2022-09-02T12:08:11.728Z,25.96
2022-09-02T12:10:45.208Z,24.99
2022-09-02T12:13:43.481Z,26.58
2022-09-02T12:16:13.091Z,25.59
2022-09-02T12:19:07.303Z,26.61
2022-09-02T12:21:35.696Z,25.00
2022-09-02T12:24:04.020Z,26.61
2022-09-02T12:26:53.471Z,25.76
2022-09-02T12:29:20.551Z,25.20
2022-09-02T12:31:49.286Z,26.33
2022-09-02T12:34:22.331Z,27.10
2022-09-02T12:36:54.738Z,26.07
2022-09-02T12:39:24.687Z,26.80
2022-09-02T12:42:14.366Z,26.33
2022-09-02T12:44:57.459Z,25.74
2022-09-02T12:47:39.671Z,26.16
2022-09-02T12:50:10.663Z,26.68
2022-09-02T12:52:42.692Z,26.47
2022-09-02T12:55:28.628Z,26.15
2022-09-02T12:58:07.490Z,26.29
2022-09-02T13:00:46.391Z,26.54
2022-09-02T13:03:44.237Z,25.63
2022-09-02T13:06:32.764Z,25.76
2022-09-02T13:09:17.823Z,26.46
2022-09-02T13:12:02.505Z,26.28
2022-09-02T13:14:47.772Z,24.82
2022-09-02T13:17:42.268Z,26.22
2022-09-02T13:20:36.630Z,26.78
2022-09-02T13:23:31.455Z,26.63
2022-09-02T13:26:07.669Z,26.81
2022-09-02T13:28:40.421Z,25.73
2022-09-02T13:31:24.071Z,25.68
2022-09-02T13:34:05.855Z,26.02
2022-09-02T13:36:37.906Z,26.51
2022-09-02T13:39:13.917Z,26.43
2022-09-02T13:41:40.734Z,26.93
2022-09-02T13:44:10.424Z,26.41
2022-09-02T13:46:49.226Z,26.47
2022-09-02T13:49:25.531Z,27.87
2022-09-02T13:51:54.956Z,27.22
2022-09-02T13:54:32.686Z,26.51
2022-09-02T13:57:03.576Z,26.49
2022-09-02T13:59:41.477Z,27.00
2022-09-02T14:02:35.745Z,27.44
2022-09-02T14:05:07.615Z,26.91
2022-09-02T14:07:41.801Z,25.60
2022-09-02T14:10:12.411Z,26.13
2022-09-02T14:12:40.548Z,26.78
2022-09-02T14:15:10.373Z,26.59
2022-09-02T14:17:37.036Z,26.11
2022-09-02T14:20:16.305Z,25.53
2022-09-02T14:22:43.488Z,25.78
2022-09-02T14:25:16.767Z,26.67
2022-09-02T14:27:51.442Z,26.76
2022-09-02T14:30:26.594Z,26.32
2022-09-02T14:33:19.047Z,26.51
2022-09-02T14:36:04.053Z,26.71
2022-09-02T14:38:46.558Z,26.00
2022-09-02T14:41:19.028Z,25.25
2022-09-02T14:43:50.172Z,26.88
2022-09-02T14:46:29.678Z,26.15
2022-09-02T14:49:10.028Z,25.65
2022-09-02T14:51:44.292Z,26.39
2022-09-02T14:54:11.588Z,26.51
2022-09-02T14:56:45.913Z,25.88
2022-09-02T14:59:12.567Z,26.23
2022-09-02T15:01:58.927Z,25.05
2022-09-02T15:04:25.791Z,25.84
2022-09-02T15:06:52.502Z,25.61
2022-09-02T15:09:19.694Z,25.68
2022-09-02T15:11:51.151Z,25.87
2022-09-02T15:14:17.853Z,25.50
2022-09-02T15:16:44.609Z,25.42
2022-09-02T15:19:11.262Z,25.13
2022-09-02T15:21:37.896Z,25.55
2022-09-02T15:24:05.320Z,25.68
2022-09-02T15:26:32.117Z,25.84
2022-09-02T15:28:58.694Z,26.42
2022-09-02T15:31:26.363Z,24.64
2022-09-02T15:33:53.337Z,25.47
2022-09-02T15:36:21.267Z,25.79
2022-09-02T15:38:47.883Z,25.54
2022-09-02T15:41:17.648Z,25.88
2022-09-02T15:43:46.061Z,25.18
2022-09-02T15:46:27.583Z,25.66
2022-09-02T15:48:59.087Z,26.04
2022-09-02T15:51:28.480Z,25.73
2022-09-02T15:53:57.016Z,25.45
2022-09-02T15:56:26.524Z,25.99
2022-09-02T15:59:01.718Z,25.60
2022-09-02T16:01:33.761Z,26.16
2022-09-02T16:04:02.430Z,25.60
2022-09-02T16:06:30.509Z,24.80
2022-09-02T16:08:57.565Z,25.48
2022-09-02T16:11:24.661Z,25.03
2022-09-02T16:13:51.621Z,25.09
2022-09-02T16:16:18.478Z,25.30
2022-09-02T16:18:51.380Z,25.26
2022-09-02T16:21:19.515Z,25.60
2022-09-02T16:23:49.215Z,25.86
2022-09-02T16:26:25.808Z,25.48
2022-09-02T16:28:57.594Z,25.39
2022-09-02T16:31:26.465Z,26.13
2022-09-02T16:33:56.414Z,26.24
2022-09-02T16:36:24.834Z,25.53
2022-09-02T16:38:56.295Z,25.64
2022-09-02T16:41:29.160Z,25.54
2022-09-02T16:43:59.943Z,25.98
2022-09-02T16:46:28.257Z,26.00
2022-09-02T16:48:58.185Z,25.05
2022-09-02T16:51:25.876Z,25.69
2022-09-02T16:53:57.178Z,25.83
2022-09-02T16:56:24.613Z,25.44
2022-09-02T16:58:52.593Z,24.67
2022-09-02T17:01:20.927Z,24.49
2022-09-02T17:03:47.990Z,25.33
2022-09-02T17:06:15.299Z,24.58
2022-09-02T17:08:43.107Z,25.03
2022-09-02T17:11:36.478Z,24.71
2022-09-02T17:14:09.431Z,25.22
2022-09-02T17:16:38.942Z,25.46
2022-09-02T17:19:06.453Z,24.88
2022-09-02T17:21:39.775Z,25.07
2022-09-02T17:24:08.544Z,24.62
2022-09-02T17:26:37.769Z,24.93
2022-09-02T17:29:17.309Z,25.44
2022-09-02T17:31:48.268Z,25.39
2022-09-02T17:34:15.276Z,25.19
2022-09-02T17:36:43.001Z,24.69
2022-09-02T17:39:19.951Z,24.73
2022-09-02T17:41:55.677Z,24.66
2022-09-02T17:44:27.324Z,24.97
2022-09-02T17:46:55.900Z,24.48
2022-09-02T17:49:22.786Z,24.66
2022-09-02T17:51:50.303Z,24.46
2022-09-02T17:54:17.114Z,24.64
2022-09-02T17:57:17.485Z,24.21
2022-09-02T17:59:59.057Z,24.70
2022-09-02T18:02:34.520Z,24.92
2022-09-02T18:05:16.211Z,25.08
2022-09-02T18:07:42.847Z,24.58
2022-09-02T18:10:12.745Z,24.43
2022-09-02T18:12:39.437Z,25.22
2022-09-02T18:15:07.254Z,25.06
2022-09-02T18:17:41.329Z,24.71
2022-09-02T18:20:28.348Z,24.68
2022-09-02T18:23:22.846Z,24.62
2022-09-02T18:26:18.246Z,24.91
2022-09-02T18:29:14.894Z,24.63
2022-09-02T18:32:02.963Z,24.54
2022-09-02T18:34:47.841Z,24.45
2022-09-02T18:37:42.489Z,24.22
2022-09-02T18:40:27.463Z,24.53
2022-09-02T18:43:29.855Z,24.29
2022-09-02T18:46:01.085Z,23.86
2022-09-02T18:48:36.863Z,23.92
2022-09-02T18:51:16.419Z,23.68
2022-09-02T18:53:49.380Z,23.64
2022-09-02T18:56:21.055Z,24.17
2022-09-02T18:58:52.608Z,23.86
2022-09-02T19:01:30.865Z,23.79
2022-09-02T19:04:01.503Z,23.92
2022-09-02T19:06:36.042Z,23.71
2022-09-02T19:09:14.895Z,23.91
2022-09-02T19:11:42.126Z,23.76
2022-09-02T19:14:08.701Z,23.60
2022-09-02T19:16:38.917Z,23.27
2022-09-02T19:19:06.647Z,24.03
2022-09-02T19:21:40.501Z,23.82
2022-09-02T19:24:12.693Z,24.03
2022-09-02T19:26:43.104Z,23.42
2022-09-02T19:29:15.601Z,23.12
2022-09-02T19:31:43.487Z,23.35
2022-09-02T19:34:10.679Z,23.63
2022-09-02T19:36:42.172Z,23.79
2022-09-02T19:39:10.192Z,22.82
2022-09-02T19:41:37.294Z,23.37
2022-09-02T19:44:03.917Z,22.81
2022-09-02T19:49:17.128Z,22.97
2022-09-02T19:51:43.947Z,23.20
2022-09-02T19:54:13.728Z,23.17
2022-09-02T19:56:41.077Z,23.48
2022-09-02T19:59:08.078Z,23.39
2022-09-02T20:01:35.425Z,23.92
2022-09-02T20:04:02.190Z,23.25
2022-09-02T20:06:28.826Z,23.54
2022-09-02T20:08:55.545Z,23.33
2022-09-02T20:11:22.143Z,23.28
2022-09-02T20:13:49.816Z,23.03
2022-09-02T20:16:25.021Z,22.88
2022-09-02T20:18:53.589Z,23.39
2022-09-02T20:21:42.698Z,22.86
2022-09-02T20:24:11.925Z,23.65
2022-09-02T20:26:41.240Z,23.15
2022-09-02T20:29:33.566Z,23.20
2022-09-02T20:32:18.686Z,22.78
2022-09-02T20:34:45.237Z,22.77
2022-09-02T20:37:33.454Z,22.85
2022-09-02T20:40:18.175Z,21.71
2022-09-02T20:43:07.930Z,22.86
2022-09-02T20:46:02.186Z,22.39
2022-09-02T20:48:55.249Z,22.46
2022-09-02T20:51:38.654Z,22.98
2022-09-02T20:54:11.152Z,22.25
2022-09-02T20:56:37.721Z,22.51
2022-09-02T20:59:31.230Z,22.07
2022-09-02T21:02:00.050Z,21.77
2022-09-02T21:04:40.148Z,22.40
2022-09-02T21:07:19.676Z,21.87
2022-09-02T21:10:09.768Z,22.85
2022-09-02T21:12:43.828Z,22.48
2022-09-02T21:15:22.834Z,22.75
2022-09-02T21:17:54.961Z,22.43
2022-09-02T21:20:24.901Z,21.86
2022-09-02T21:22:58.332Z,22.17
2022-09-02T21:25:48.157Z,21.86
2022-09-02T21:28:39.077Z,21.68
2022-09-02T21:31:13.038Z,22.18
2022-09-02T21:33:42.593Z,21.82
2022-09-02T21:36:13.656Z,21.95
2022-09-02T21:38:45.512Z,22.37
2022-09-02T21:41:17.927Z,21.40
2022-09-02T21:44:06.106Z,21.78
2022-09-02T21:47:01.691Z,21.54
2022-09-02T21:49:46.320Z,21.83
2022-09-02T21:52:29.530Z,22.12
2022-09-02T21:55:10.823Z,22.07
2022-09-02T21:57:48.982Z,20.95
2022-09-02T22:00:17.623Z,22.07
2022-09-02T22:03:09.239Z,21.90
2022-09-02T22:05:48.986Z,21.49
2022-09-02T22:08:33.995Z,21.84
2022-09-02T22:11:06.092Z,22.26
2022-09-02T22:13:34.154Z,21.68
2022-09-02T22:16:46.042Z,21.64
2022-09-02T22:19:13.589Z,20.91
2022-09-02T22:22:15.038Z,21.59
2022-09-02T22:24:41.749Z,21.17
2022-09-02T22:27:17.108Z,21.17
2022-09-02T22:29:49.714Z,20.91
2022-09-02T22:32:20.592Z,21.68
2022-09-02T22:34:57.602Z,21.43
2022-09-02T22:37:34.239Z,21.38
2022-09-02T22:40:01.140Z,21.13
2022-09-02T22:42:40.026Z,21.09
2022-09-02T22:45:33.300Z,20.50
2022-09-02T22:48:41.340Z,21.41
2022-09-02T22:51:37.229Z,21.32
2022-09-02T22:54:04.152Z,21.40
2022-09-02T22:56:41.389Z,21.65
2022-09-02T22:59:49.715Z,21.19
2022-09-02T23:02:44.361Z,21.75
2022-09-02T23:05:43.964Z,20.04
2022-09-02T23:08:15.571Z,20.54
2022-09-02T23:11:25.086Z,21.06
2022-09-02T23:14:11.142Z,20.28
2022-09-02T23:17:23.342Z,20.15
2022-09-02T23:19:58.981Z,20.04
2022-09-02T23:22:43.737Z,19.88
2022-09-02T23:25:47.529Z,20.30
2022-09-02T23:28:32.146Z,20.41
2022-09-02T23:31:12.552Z,20.18
2022-09-02T23:33:49.226Z,20.05
2022-09-02T23:36:25.129Z,19.84
2022-09-02T23:38:57.945Z,19.84
2022-09-02T23:41:24.933Z,20.48
2022-09-02T23:43:52.789Z,20.27
2022-09-02T23:46:38.359Z,20.24
2022-09-02T23:49:07.952Z,20.66
2022-09-02T23:52:13.062Z,21.43
2022-09-02T23:54:54.572Z,21.27
2022-09-02T23:57:43.106Z,20.72
